createdAt,value
2022-12-05T00:00:37.812Z,101863.38
2022-12-05T00:03:07.971Z,101849.91
2022-12-05T00:05:42.374Z,101843.72
2022-12-05T00:08:09.909Z,101849.78
2022-12-05T00:10:38.306Z,101845.72
2022-12-05T00:13:08.733Z,101836.13
2022-12-05T00:15:40.815Z,101840.22
2022-12-05T00:18:10.614Z,101837.59
2022-12-05T00:20:37.902Z,101853.38
2022-12-05T00:23:05.346Z,101864.03
2022-12-05T00:25:36.511Z,101869.63
2022-12-05T00:28:03.888Z,101868.25
2022-12-05T00:30:31.129Z,101873.59
2022-12-05T00:32:59.286Z,101866.72
2022-12-05T00:35:26.469Z,101858.56
2022-12-05T00:37:54.159Z,101857.41
2022-12-05T00:40:21.396Z,101862.97
2022-12-05T00:42:52.307Z,101848.69
2022-12-05T00:45:20.060Z,101853.19
2022-12-05T00:47:47.368Z,101846.19
2022-12-05T00:50:14.727Z,101837.88
2022-12-05T00:52:42.294Z,101849.88
2022-12-05T00:55:13.752Z,101853.84
2022-12-05T00:57:41.958Z,101851.25
2022-12-05T01:00:12.848Z,101848.72
2022-12-05T01:02:45.646Z,101848.72
2022-12-05T01:05:16.416Z,101855.56
2022-12-05T01:07:43.753Z,101849.69
2022-12-05T01:10:13.748Z,101851.88
2022-12-05T01:12:40.888Z,101859.38
2022-12-05T01:15:09.423Z,101857.47
2022-12-05T01:17:36.593Z,101854.81
2022-12-05T01:20:04.597Z,101856.00
2022-12-05T01:22:31.793Z,101853.88
2022-12-05T01:24:59.052Z,101845.31
2022-12-05T01:27:26.332Z,101847.56
2022-12-05T01:29:53.724Z,101851.47
2022-12-05T01:32:21.059Z,101839.31
2022-12-05T01:34:48.531Z,101838.50
2022-12-05T01:37:18.488Z,101833.22
2022-12-05T01:39:48.232Z,101827.78
2022-12-05T01:42:15.664Z,101811.56
2022-12-05T01:44:42.734Z,101826.50
2022-12-05T01:47:10.113Z,101815.78
2022-12-05T01:49:41.961Z,101820.91
2022-12-05T01:52:20.592Z,101822.06
2022-12-05T01:54:51.089Z,101804.25
2022-12-05T01:57:19.010Z,101811.13
2022-12-05T01:59:56.229Z,101815.00
2022-12-05T02:02:24.391Z,101833.72
2022-12-05T02:05:03.570Z,101814.06
2022-12-05T02:07:32.814Z,101816.09
2022-12-05T02:10:00.953Z,101821.28
2022-12-05T02:12:28.611Z,101837.59
2022-12-05T02:15:38.155Z,101837.38
2022-12-05T02:18:32.791Z,101821.47
2022-12-05T02:21:37.635Z,101826.94
2022-12-05T02:24:34.570Z,101818.88
2022-12-05T02:27:29.639Z,101829.34
2022-12-05T02:30:20.349Z,101823.63
2022-12-05T02:33:20.188Z,101818.34
2022-12-05T02:36:07.481Z,101827.75
2022-12-05T02:39:30.057Z,101832.47
2022-12-05T02:42:39.722Z,101849.06
2022-12-05T02:45:14.371Z,101836.84
2022-12-05T02:47:50.201Z,101841.63
2022-12-05T02:50:28.485Z,101838.53
2022-12-05T02:53:01.003Z,101837.38
2022-12-05T02:55:31.114Z,101838.13
2022-12-05T02:58:03.461Z,101837.03
2022-12-05T03:00:30.761Z,101827.72
2022-12-05T03:03:02.779Z,101818.19
2022-12-05T03:05:33.725Z,101807.09
2022-12-05T03:08:04.668Z,101812.47
2022-12-05T03:10:36.799Z,101807.75
2022-12-05T03:13:18.178Z,101795.38
2022-12-05T03:15:53.762Z,101799.50
2022-12-05T03:18:34.862Z,101796.25
2022-12-05T03:21:30.363Z,101794.66
2022-12-05T03:24:06.857Z,101794.53
2022-12-05T03:27:21.156Z,101796.59
2022-12-05T03:29:59.288Z,101805.91
2022-12-05T03:32:45.783Z,101806.13
2022-12-05T03:35:39.794Z,101801.44
2022-12-05T03:38:51.191Z,101812.25
2022-12-05T03:41:53.726Z,101802.16
2022-12-05T03:45:06.148Z,101810.22
2022-12-05T03:47:45.387Z,101809.84
2022-12-05T03:50:29.329Z,101815.63
2022-12-05T03:53:20.703Z,101812.22
2022-12-05T03:55:59.139Z,101820.22
2022-12-05T03:58:36.707Z,101816.56
2022-12-05T04:01:08.294Z,101831.41
2022-12-05T04:04:00.912Z,101815.50
2022-12-05T04:06:35.173Z,101825.44
2022-12-05T04:09:16.999Z,101822.41
2022-12-05T04:11:52.018Z,101816.25
2022-12-05T04:14:28.847Z,101817.06
2022-12-05T04:17:12.326Z,101831.53
2022-12-05T04:20:13.818Z,101817.59
2022-12-05T04:22:42.520Z,101821.59
2022-12-05T04:25:32.043Z,101817.84
2022-12-05T04:28:30.050Z,101812.19
2022-12-05T04:31:08.030Z,101795.97
2022-12-05T04:33:56.759Z,101797.84
2022-12-05T04:36:31.620Z,101793.44
2022-12-05T04:39:26.158Z,101793.34
2022-12-05T04:42:26.652Z,101802.75
2022-12-05T04:45:00.289Z,101799.63
2022-12-05T04:47:33.104Z,101809.47
2022-12-05T04:50:02.235Z,101806.34
2022-12-05T04:52:31.182Z,101792.22
2022-12-05T04:55:20.786Z,101807.16
2022-12-05T04:58:07.981Z,101796.91
2022-12-05T05:00:50.096Z,101810.34
2022-12-05T05:03:56.610Z,101791.06
2022-12-05T05:06:24.023Z,101789.81
2022-12-05T05:08:57.558Z,101812.47
2022-12-05T05:11:32.179Z,101800.16
2022-12-05T05:13:59.996Z,101809.47
2022-12-05T05:16:34.707Z,101795.44
2022-12-05T05:19:03.159Z,101790.59
2022-12-05T05:21:35.876Z,101783.97
2022-12-05T05:24:15.697Z,101793.97
2022-12-05T05:26:45.990Z,101790.09
2022-12-05T05:29:15.496Z,101799.78
2022-12-05T05:31:43.277Z,101787.75
2022-12-05T05:34:16.255Z,101788.94
2022-12-05T05:36:44.336Z,101786.91
2022-12-05T05:39:15.880Z,101790.09
2022-12-05T05:41:44.408Z,101797.31
2022-12-05T05:44:11.761Z,101790.78
2022-12-05T05:46:39.088Z,101791.41
2022-12-05T05:49:06.475Z,101793.19
2022-12-05T05:51:33.770Z,101786.97
2022-12-05T05:54:01.087Z,101802.97
2022-12-05T05:56:29.216Z,101787.06
2022-12-05T05:59:08.447Z,101778.63
2022-12-05T06:01:35.558Z,101786.91
2022-12-05T06:04:08.163Z,101785.31
2022-12-05T06:06:35.566Z,101780.97
2022-12-05T06:09:02.786Z,101795.53
2022-12-05T06:11:30.494Z,101783.84
2022-12-05T06:14:03.084Z,101787.44
2022-12-05T06:16:32.097Z,101791.66
2022-12-05T06:18:59.822Z,101802.09
2022-12-05T06:21:27.686Z,101804.13
2022-12-05T06:23:55.720Z,101800.28
2022-12-05T06:26:24.015Z,101805.81
2022-12-05T06:28:53.571Z,101811.75
2022-12-05T06:31:23.870Z,101807.56
2022-12-05T06:33:51.183Z,101807.66
2022-12-05T06:36:22.025Z,101805.81
2022-12-05T06:38:52.253Z,101812.63
2022-12-05T06:41:25.448Z,101799.22
2022-12-05T06:44:02.172Z,101808.28
2022-12-05T06:46:30.185Z,101805.03
2022-12-05T06:48:59.087Z,101812.22
2022-12-05T06:51:29.410Z,101818.84
2022-12-05T06:53:57.267Z,101819.88
2022-12-05T06:56:24.354Z,101825.19
2022-12-05T06:58:53.622Z,101825.28
2022-12-05T07:01:38.818Z,101819.94
2022-12-05T07:04:24.132Z,101809.97
2022-12-05T07:06:56.408Z,101825.56
2022-12-05T07:09:44.823Z,101796.09
2022-12-05T07:12:14.646Z,101807.38
2022-12-05T07:14:48.083Z,101796.91
2022-12-05T07:17:17.468Z,101800.72
2022-12-05T07:19:45.303Z,101789.69
2022-12-05T07:22:15.970Z,101793.56
2022-12-05T07:24:44.870Z,101790.06
2022-12-05T07:27:15.383Z,101777.00
2022-12-05T07:29:42.607Z,101783.84
2022-12-05T07:32:12.266Z,101784.44
2022-12-05T07:34:42.476Z,101773.59
2022-12-05T07:37:13.928Z,101777.00
2022-12-05T07:39:41.103Z,101784.00
2022-12-05T07:42:08.263Z,101774.56
2022-12-05T07:44:39.234Z,101774.81
2022-12-05T07:47:06.414Z,101787.09
2022-12-05T07:49:33.694Z,101779.63
2022-12-05T07:52:00.764Z,101774.69
2022-12-05T07:54:27.885Z,101769.78
2022-12-05T07:56:55.130Z,101781.50
2022-12-05T07:59:22.283Z,101781.50
2022-12-05T08:01:49.859Z,101782.25
2022-12-05T08:04:17.165Z,101781.63
2022-12-05T08:06:44.839Z,101766.44
2022-12-05T08:09:16.749Z,101779.38
2022-12-05T08:11:51.054Z,101778.53
2022-12-05T08:14:22.044Z,101785.00
2022-12-05T08:16:49.418Z,101788.75
2022-12-05T08:19:17.261Z,101790.44
2022-12-05T08:21:44.668Z,101797.31
2022-12-05T08:24:13.696Z,101801.13
2022-12-05T08:26:43.507Z,101805.81
2022-12-05T08:29:14.663Z,101797.53
2022-12-05T08:31:49.034Z,101796.22
2022-12-05T08:34:19.582Z,101787.44
2022-12-05T08:36:47.605Z,101781.84
2022-12-05T08:39:18.033Z,101782.06
2022-12-05T08:41:47.420Z,101775.41
2022-12-05T08:44:18.821Z,101768.72
2022-12-05T08:46:49.429Z,101769.00
2022-12-05T08:49:19.547Z,101775.00
2022-12-05T08:51:49.250Z,101765.25
2022-12-05T08:54:17.352Z,101782.72
2022-12-05T08:56:44.727Z,101773.25
2022-12-05T08:59:12.098Z,101772.84
2022-12-05T09:01:40.669Z,101773.72
2022-12-05T09:04:10.762Z,101782.81
2022-12-05T09:06:40.433Z,101772.75
2022-12-05T09:09:11.797Z,101771.91
2022-12-05T09:11:46.751Z,101773.91
2022-12-05T09:14:15.124Z,101778.22
2022-12-05T09:16:46.021Z,101773.06
2022-12-05T09:19:18.300Z,101779.69
2022-12-05T09:21:45.432Z,101772.84
2022-12-05T09:24:14.161Z,101776.69
2022-12-05T09:26:44.248Z,101770.56
2022-12-05T09:29:18.008Z,101768.84
2022-12-05T09:31:50.148Z,101758.88
2022-12-05T09:34:18.606Z,101765.22
2022-12-05T09:36:46.441Z,101763.22
2022-12-05T09:39:14.063Z,101754.78
2022-12-05T09:42:21.969Z,101755.31
2022-12-05T09:45:32.227Z,101751.34
2022-12-05T09:48:15.717Z,101755.66
2022-12-05T09:50:50.027Z,101754.19
2022-12-05T09:53:33.574Z,101755.72
2022-12-05T09:56:16.208Z,101760.13
2022-12-05T09:58:52.553Z,101753.53
2022-12-05T10:02:14.159Z,101754.88
2022-12-05T10:05:02.697Z,101753.59
2022-12-05T10:08:03.288Z,101753.94
2022-12-05T10:10:45.794Z,101755.16
2022-12-05T10:13:28.383Z,101743.41
2022-12-05T10:16:21.910Z,101747.31
2022-12-05T10:19:06.615Z,101739.34
2022-12-05T10:21:52.903Z,101747.91
2022-12-05T10:24:33.957Z,101727.47
2022-12-05T10:27:08.853Z,101731.34
2022-12-05T10:29:49.262Z,101731.78
2022-12-05T10:32:30.523Z,101719.66
2022-12-05T10:35:19.778Z,101732.16
2022-12-05T10:37:54.518Z,101727.16
2022-12-05T10:40:22.596Z,101729.47
2022-12-05T10:42:52.678Z,101728.31
2022-12-05T10:45:23.906Z,101720.91
2022-12-05T10:47:59.087Z,101719.44
2022-12-05T10:50:30.684Z,101710.75
2022-12-05T10:53:00.539Z,101717.63
2022-12-05T10:55:59.972Z,101707.38
2022-12-05T10:58:33.665Z,101709.66
2022-12-05T11:01:15.986Z,101701.81
2022-12-05T11:03:44.138Z,101704.53
2022-12-05T11:06:44.031Z,101712.69
2022-12-05T11:09:31.031Z,101708.31
2022-12-05T11:12:09.238Z,101710.16
2022-12-05T11:14:36.546Z,101707.81
2022-12-05T11:17:06.863Z,101704.25
2022-12-05T11:19:40.100Z,101707.66
2022-12-05T11:22:08.282Z,101702.00
2022-12-05T11:24:39.610Z,101690.44
2022-12-05T11:27:32.183Z,101694.06
2022-12-05T11:30:05.153Z,101689.91
2022-12-05T11:32:34.022Z,101693.34
2022-12-05T11:35:13.259Z,101705.75
2022-12-05T11:38:02.124Z,101682.50
2022-12-05T11:40:57.791Z,101686.63
2022-12-05T11:43:30.642Z,101676.63
2022-12-05T11:46:31.783Z,101673.22
2022-12-05T11:50:06.071Z,101670.88
2022-12-05T11:52:58.111Z,101673.88
2022-12-05T11:55:34.533Z,101660.16
2022-12-05T11:58:35.136Z,101649.56
2022-12-05T12:01:33.756Z,101660.19
2022-12-05T12:04:25.677Z,101657.22
2022-12-05T12:07:46.085Z,101644.78
2022-12-05T12:10:50.862Z,101638.25
2022-12-05T12:13:26.796Z,101625.53
2022-12-05T12:16:22.590Z,101615.16
2022-12-05T12:19:21.864Z,101615.88
2022-12-05T12:22:32.835Z,101612.34
2022-12-05T12:25:21.196Z,101620.31
2022-12-05T12:28:08.735Z,101597.94
2022-12-05T12:31:22.465Z,101585.72
2022-12-05T12:34:26.685Z,101592.13
2022-12-05T12:37:19.812Z,101575.00
2022-12-05T12:40:19.213Z,101570.09
2022-12-05T12:43:08.067Z,101576.91
2022-12-05T12:46:08.088Z,101583.84
2022-12-05T12:49:35.096Z,101578.47
2022-12-05T12:52:14.647Z,101572.59
2022-12-05T12:55:32.061Z,101581.66
2022-12-05T12:58:27.584Z,101575.38
2022-12-05T13:01:03.648Z,101572.19
2022-12-05T13:03:51.719Z,101578.00
2022-12-05T13:06:31.257Z,101585.84
2022-12-05T13:09:12.565Z,101590.72
2022-12-05T13:11:44.534Z,101591.75
2022-12-05T13:14:24.987Z,101583.84
2022-12-05T13:16:54.833Z,101590.91
2022-12-05T13:19:53.954Z,101586.59
2022-12-05T13:22:26.678Z,101588.47
2022-12-05T13:24:55.282Z,101590.19
2022-12-05T13:27:27.534Z,101577.28
2022-12-05T13:30:02.698Z,101588.78
2022-12-05T13:32:43.851Z,101588.63
2022-12-05T13:35:49.685Z,101596.41
2022-12-05T13:38:50.466Z,101596.44
2022-12-05T13:41:36.725Z,101592.84
2022-12-05T13:44:12.537Z,101592.03
2022-12-05T13:46:43.848Z,101586.44
2022-12-05T13:49:48.166Z,101569.44
2022-12-05T13:52:30.296Z,101580.72
2022-12-05T13:55:35.622Z,101569.66
2022-12-05T13:58:23.635Z,101578.97
2022-12-05T14:00:52.358Z,101572.53
2022-12-05T14:03:36.857Z,101573.84
2022-12-05T14:06:06.622Z,101560.84
2022-12-05T14:08:39.909Z,101565.75
2022-12-05T14:11:13.713Z,101560.97
2022-12-05T14:13:43.714Z,101560.03
2022-12-05T14:16:31.658Z,101568.78
2022-12-05T14:19:34.394Z,101560.41
2022-12-05T14:22:38.570Z,101554.34
2022-12-05T14:25:57.392Z,101550.06
2022-12-05T14:28:58.792Z,101541.72
2022-12-05T14:32:04.692Z,101550.88
2022-12-05T14:34:36.614Z,101543.94
2022-12-05T14:37:15.612Z,101545.53
2022-12-05T14:39:49.111Z,101540.53
2022-12-05T14:42:51.299Z,101534.34
2022-12-05T14:45:50.946Z,101541.94
2022-12-05T14:48:17.986Z,101542.16
2022-12-05T14:50:51.077Z,101540.41
2022-12-05T14:53:21.243Z,101540.31
2022-12-05T14:55:54.300Z,101535.16
2022-12-05T14:58:52.011Z,101536.13
2022-12-05T15:01:54.934Z,101529.44
2022-12-05T15:05:12.287Z,101522.19
2022-12-05T15:07:40.505Z,101519.38
2022-12-05T15:10:14.152Z,101526.25
2022-12-05T15:12:53.738Z,101516.88
2022-12-05T15:15:36.674Z,101516.00
2022-12-05T15:18:31.952Z,101525.41
2022-12-05T15:21:14.757Z,101524.00
2022-12-05T15:23:46.461Z,101518.16
2022-12-05T15:29:21.176Z,101521.00
2022-12-05T15:31:55.313Z,101514.56
2022-12-05T15:34:53.140Z,101519.97
2022-12-05T15:37:35.111Z,101524.50
2022-12-05T15:40:17.985Z,101524.13
2022-12-05T15:43:24.352Z,101517.69
2022-12-05T15:46:06.282Z,101523.88
2022-12-05T15:48:33.462Z,101516.72
2022-12-05T15:51:03.187Z,101519.00
2022-12-05T15:53:45.014Z,101515.28
2022-12-05T15:56:39.489Z,101525.31
2022-12-05T15:59:18.711Z,101523.75
2022-12-05T16:02:23.715Z,101519.09
2022-12-05T16:04:57.155Z,101520.06
2022-12-05T16:07:34.034Z,101520.19
2022-12-05T16:10:02.710Z,101521.00
2022-12-05T16:12:42.483Z,101526.22
2022-12-05T16:15:24.214Z,101518.38
2022-12-05T16:18:01.662Z,101517.78
2022-12-05T16:20:33.185Z,101508.13
2022-12-05T16:23:30.394Z,101513.84
2022-12-05T16:26:21.426Z,101512.00
2022-12-05T16:29:00.969Z,101508.69
2022-12-05T16:31:30.097Z,101503.09
2022-12-05T16:34:14.538Z,101510.19
2022-12-05T16:36:54.487Z,101511.50
2022-12-05T16:39:23.595Z,101512.69
2022-12-05T16:41:51.588Z,101516.84
2022-12-05T16:44:28.598Z,101508.75
2022-12-05T16:47:00.498Z,101509.00
2022-12-05T16:49:30.862Z,101505.22
2022-12-05T16:52:14.638Z,101499.03
2022-12-05T16:54:46.066Z,101487.66
2022-12-05T16:57:16.402Z,101489.53
2022-12-05T16:59:45.844Z,101491.91
2022-12-05T17:02:19.400Z,101486.03
2022-12-05T17:04:47.259Z,101491.28
2022-12-05T17:07:14.727Z,101483.34
2022-12-05T17:09:44.388Z,101480.28
2022-12-05T17:12:20.820Z,101482.41
2022-12-05T17:14:50.370Z,101474.38
2022-12-05T17:17:19.291Z,101476.53
2022-12-05T17:19:46.710Z,101478.56
2022-12-05T17:22:16.136Z,101474.81
2022-12-05T17:24:43.957Z,101475.38
2022-12-05T17:27:14.668Z,101469.22
2022-12-05T17:29:44.685Z,101468.16
2022-12-05T17:32:13.429Z,101458.13
2022-12-05T17:34:42.956Z,101463.81
2022-12-05T17:37:10.197Z,101456.41
2022-12-05T17:39:37.454Z,101449.72
2022-12-05T17:42:04.834Z,101450.31
2022-12-05T17:44:32.136Z,101452.47
2022-12-05T17:47:07.770Z,101452.53
2022-12-05T17:49:36.012Z,101457.50
2022-12-05T17:54:54.178Z,101454.59
2022-12-05T17:57:22.590Z,101460.34
2022-12-05T17:59:49.981Z,101458.22
2022-12-05T18:02:20.273Z,101450.16
2022-12-05T18:04:47.621Z,101439.53
2022-12-05T18:07:17.379Z,101449.53
2022-12-05T18:09:44.656Z,101446.91
2022-12-05T18:12:11.979Z,101437.22
2022-12-05T18:14:42.227Z,101438.19
2022-12-05T18:17:11.892Z,101440.06
2022-12-05T18:19:39.182Z,101436.72
2022-12-05T18:22:08.884Z,101437.19
2022-12-05T18:24:36.053Z,101433.34
2022-12-05T18:27:05.523Z,101437.28
2022-12-05T18:29:32.838Z,101442.94
2022-12-05T18:32:00.354Z,101434.13
2022-12-05T18:34:27.644Z,101425.97
2022-12-05T18:36:57.463Z,101438.56
2022-12-05T18:39:24.902Z,101433.66
2022-12-05T18:41:52.592Z,101440.09
2022-12-05T18:44:21.118Z,101434.13
2022-12-05T18:46:48.773Z,101427.44
2022-12-05T18:49:16.163Z,101425.25
2022-12-05T18:51:43.396Z,101423.59
2022-12-05T18:54:10.905Z,101427.13
2022-12-05T18:56:40.904Z,101424.69
2022-12-05T18:59:14.673Z,101428.41
2022-12-05T19:01:45.999Z,101426.66
2022-12-05T19:04:17.223Z,101412.81
2022-12-05T19:07:02.053Z,101412.56
2022-12-05T19:09:34.016Z,101416.47
2022-12-05T19:12:01.769Z,101415.50
2022-12-05T19:14:33.193Z,101422.81
2022-12-05T19:17:00.948Z,101423.03
2022-12-05T19:19:29.429Z,101423.13
2022-12-05T19:21:59.586Z,101415.56
2022-12-05T19:24:27.160Z,101423.13
2022-12-05T19:26:54.414Z,101412.13
2022-12-05T19:29:21.849Z,101411.56
2022-12-05T19:31:49.857Z,101418.63
2022-12-05T19:34:17.070Z,101412.78
2022-12-05T19:36:46.365Z,101409.97
2022-12-05T19:39:20.693Z,101417.50
2022-12-05T19:41:49.381Z,101411.59
2022-12-05T19:44:17.449Z,101418.91
2022-12-05T19:46:47.387Z,101419.34
2022-12-05T19:49:19.016Z,101427.22
2022-12-05T19:51:48.625Z,101410.16
2022-12-05T19:54:22.226Z,101412.25
2022-12-05T19:56:58.537Z,101417.03
2022-12-05T19:59:28.526Z,101422.84
2022-12-05T20:01:58.130Z,101411.00
2022-12-05T20:04:25.822Z,101418.19
2022-12-05T20:06:53.185Z,101432.63
2022-12-05T20:09:23.044Z,101420.19
2022-12-05T20:11:55.544Z,101427.53
2022-12-05T20:14:28.905Z,101421.34
2022-12-05T20:16:59.059Z,101418.91
2022-12-05T20:19:29.984Z,101418.16
2022-12-05T20:21:58.875Z,101417.19
2022-12-05T20:24:26.128Z,101409.38
2022-12-05T20:26:54.998Z,101407.34
2022-12-05T20:29:22.391Z,101405.09
2022-12-05T20:31:53.214Z,101405.22
2022-12-05T20:34:20.852Z,101399.19
2022-12-05T20:36:48.219Z,101396.94
2022-12-05T20:39:20.006Z,101397.75
2022-12-05T20:41:52.725Z,101401.13
2022-12-05T20:44:20.053Z,101395.63
2022-12-05T20:46:50.689Z,101392.56
2022-12-05T20:49:18.714Z,101388.75
2022-12-05T20:51:50.352Z,101384.94
2022-12-05T20:54:21.351Z,101386.59
2022-12-05T20:56:56.176Z,101379.16
2022-12-05T20:59:32.635Z,101374.50
2022-12-05T21:02:02.872Z,101369.09
2022-12-05T21:04:40.041Z,101375.81
2022-12-05T21:07:08.829Z,101370.63
2022-12-05T21:09:39.341Z,101368.41
2022-12-05T21:12:07.386Z,101364.47
2022-12-05T21:14:42.427Z,101365.16
2022-12-05T21:17:27.937Z,101363.41
2022-12-05T21:20:01.857Z,101363.97
2022-12-05T21:22:36.263Z,101354.56
2022-12-05T21:25:14.758Z,101365.00
2022-12-05T21:27:55.181Z,101361.50
2022-12-05T21:30:30.052Z,101370.38
2022-12-05T21:33:06.520Z,101362.66
2022-12-05T21:35:46.602Z,101364.44
2022-12-05T21:38:49.536Z,101371.28
2022-12-05T21:41:26.069Z,101368.75
2022-12-05T21:44:03.277Z,101372.69
2022-12-05T21:46:38.109Z,101367.75
2022-12-05T21:49:24.402Z,101372.88
2022-12-05T21:52:30.715Z,101370.44
2022-12-05T21:55:16.701Z,101371.84
2022-12-05T21:57:48.379Z,101366.03
2022-12-05T22:00:18.327Z,101370.09
2022-12-05T22:02:46.677Z,101357.22
2022-12-05T22:05:20.313Z,101361.94
2022-12-05T22:07:54.392Z,101355.53
2022-12-05T22:10:28.253Z,101349.88
2022-12-05T22:12:57.795Z,101352.81
2022-12-05T22:15:31.441Z,101344.63
2022-12-05T22:18:01.686Z,101337.84
2022-12-05T22:20:30.259Z,101340.81
2022-12-05T22:23:01.031Z,101336.63
2022-12-05T22:25:32.171Z,101330.66
2022-12-05T22:28:07.612Z,101339.59
2022-12-05T22:30:39.414Z,101343.56
2022-12-05T22:33:10.584Z,101336.22
2022-12-05T22:35:41.521Z,101340.25
2022-12-05T22:38:12.111Z,101333.59
2022-12-05T22:40:39.964Z,101339.91
2022-12-05T22:43:07.855Z,101334.06
2022-12-05T22:45:36.725Z,101320.72
2022-12-05T22:48:05.111Z,101323.47
2022-12-05T22:50:32.904Z,101327.13
2022-12-05T22:53:05.498Z,101324.88
2022-12-05T22:55:43.149Z,101317.41
2022-12-05T22:58:16.847Z,101318.00
2022-12-05T23:00:45.702Z,101318.22
2022-12-05T23:03:19.699Z,101301.41
2022-12-05T23:05:48.889Z,101296.78
2022-12-05T23:08:22.422Z,101293.44
2022-12-05T23:10:50.642Z,101294.69
2022-12-05T23:13:18.679Z,101287.94
2022-12-05T23:15:46.452Z,101280.59
2022-12-05T23:18:16.187Z,101284.59
2022-12-05T23:20:47.234Z,101279.63
2022-12-05T23:23:15.194Z,101278.53
2022-12-05T23:25:45.834Z,101268.16
2022-12-05T23:28:14.005Z,101261.66
2022-12-05T23:30:45.179Z,101259.03
2022-12-05T23:33:14.412Z,101271.03
2022-12-05T23:35:45.699Z,101274.72
2022-12-05T23:38:13.924Z,101273.41
2022-12-05T23:40:41.845Z,101270.47
2022-12-05T23:43:09.661Z,101273.00
2022-12-05T23:45:42.162Z,101268.50
2022-12-05T23:48:09.845Z,101267.69
2022-12-05T23:50:37.871Z,101264.13
2022-12-05T23:53:08.895Z,101261.66
2022-12-05T23:55:37.263Z,101249.22
2022-12-05T23:58:05.480Z,101251.41
